Time;durP1;ratioP1;P1;durP2;ratioP2;P2;SDS_P1;SDS_P2;PMS_P1;PMS_P2;Temp;Humidity;BMP_temperature;BMP_pressure;BME280_temperature;BME280_humidity;BME280_pressure;Samples;Min_cycle;Max_cycle;Signal;HPM_P1;HPM_P2
2022/04/21 00:00:15;;;;;;;10.65;6.53;;;;;;;9.65;59.38;101307.22;5093075;28;20059;-73
2022/04/21 00:02:41;;;;;;;9.65;5.40;;;;;;;9.73;59.21;101313.19;5092032;28;20035;-73
2022/04/21 00:05:11;;;;;;;9.23;6.22;;;;;;;9.67;59.69;101304.59;5076046;28;20040;-73
2022/04/21 00:07:37;;;;;;;8.57;6.18;;;;;;;9.65;60.18;101298.56;5095059;28;20379;-73
2022/04/21 00:10:04;;;;;;;10.48;5.82;;;;;;;9.57;60.17;101296.91;5094601;28;20024;-73
2022/04/21 00:12:29;;;;;;;9.02;5.47;;;;;;;9.61;59.89;101300.31;5093321;28;20020;-73
2022/04/21 00:14:55;;;;;;;9.38;5.60;;;;;;;9.63;60.61;101298.56;5082229;28;20031;-73
2022/04/21 00:17:20;;;;;;;9.88;5.63;;;;;;;9.63;60.37;101306.38;5092959;28;20108;-73
2022/04/21 00:19:45;;;;;;;10.27;6.47;;;;;;;9.59;59.99;101304.69;5094447;28;20369;-73
2022/04/21 00:24:54;;;;;;;9.13;5.75;;;;;;;9.57;59.82;101298.63;5073429;28;20097;-73
2022/04/21 00:27:20;;;;;;;7.30;5.70;;;;;;;9.60;60.51;101309.88;5089541;28;20430;-73
2022/04/21 00:29:45;;;;;;;8.75;5.70;;;;;;;9.59;60.64;101308.16;5076740;28;20059;-73
2022/04/21 00:32:10;;;;;;;9.45;6.07;;;;;;;9.56;60.34;101295.19;5073263;28;20067;-73
2022/04/21 00:34:37;;;;;;;8.73;5.90;;;;;;;9.56;60.63;101291.72;5077514;28;20032;-73
2022/04/21 00:37:03;;;;;;;8.50;5.93;;;;;;;9.50;60.15;101303.06;5088563;28;20078;-73
2022/04/21 00:39:28;;;;;;;8.00;5.57;;;;;;;9.47;61.06;101297.88;5083192;28;20036;-73
2022/04/21 00:42:03;;;;;;;9.48;6.90;;;;;;;9.49;60.77;101301.34;5093702;28;20097;-73
2022/04/21 00:44:29;;;;;;;9.68;6.25;;;;;;;9.45;60.35;101293.56;5074842;28;20036;-73
2022/04/21 00:46:56;;;;;;;12.20;6.35;;;;;;;9.43;60.97;101297.94;5091430;28;20024;-73
2022/04/21 00:49:22;;;;;;;8.57;5.72;;;;;;;9.38;60.89;101295.38;5094015;28;20060;-72
2022/04/21 00:51:49;;;;;;;9.68;6.35;;;;;;;9.29;60.32;101287.72;5093760;28;20048;-73
2022/04/21 00:54:15;;;;;;;8.68;5.72;;;;;;;9.27;61.79;101286.84;5089985;28;20036;-73
2022/04/21 00:56:42;;;;;;;11.15;6.07;;;;;;;9.28;61.57;101288.56;5074788;28;20429;-73
2022/04/21 00:59:09;;;;;;;9.25;6.57;;;;;;;9.25;60.86;101280.78;5074707;28;20031;-73
2022/04/21 01:04:20;;;;;;;8.85;6.03;;;;;;;9.32;61.43;101282.47;5073212;28;20087;-73
2022/04/21 01:06:46;;;;;;;10.23;6.18;;;;;;;9.29;61.32;101282.50;5082068;28;20040;-73
2022/04/21 01:09:11;;;;;;;9.77;5.68;;;;;;;9.29;61.54;101287.72;5078877;28;20026;-73
2022/04/21 01:11:38;;;;;;;9.32;5.90;;;;;;;9.20;61.89;101288.66;5082092;28;20025;-73
2022/04/21 01:14:04;;;;;;;10.95;6.03;;;;;;;9.19;62.59;101281.75;5072481;28;20036;-73
2022/04/21 01:16:29;;;;;;;9.63;6.00;;;;;;;9.18;62.60;101287.81;5073197;28;20361;-73
2022/04/21 01:18:56;;;;;;;9.20;5.95;;;;;;;9.13;62.31;101287.84;5090510;28;20032;-73
2022/04/21 01:21:21;;;;;;;9.30;5.93;;;;;;;9.10;62.69;101287.88;5092514;28;20519;-73
2022/04/21 01:23:46;;;;;;;10.55;6.65;;;;;;;9.02;62.73;101288.84;5089963;28;20038;-73
2022/04/21 01:26:12;;;;;;;11.18;6.13;;;;;;;8.93;62.80;101292.41;5079409;28;20029;-73
2022/04/21 01:28:38;;;;;;;10.55;6.30;;;;;;;8.87;63.28;101292.47;5078307;28;20440;-73
2022/04/21 01:31:03;;;;;;;8.82;6.70;;;;;;;8.81;63.62;101285.56;5085043;28;20064;-73
2022/04/21 01:33:28;;;;;;;9.43;6.57;;;;;;;8.75;63.35;101284.75;5091384;28;20060;-73
2022/04/21 01:35:53;;;;;;;11.73;6.40;;;;;;;8.70;63.67;101283.94;5092350;28;20024;-73
2022/04/21 01:41:11;;;;;;;12.57;6.65;;;;;;;8.62;63.51;101279.66;5073060;28;20089;-73
2022/04/21 01:43:43;;;;;;;10.43;6.18;;;;;;;8.57;63.66;101281.44;5071468;28;20054;-73
2022/04/21 01:46:09;;;;;;;12.43;6.38;;;;;;;8.54;65.05;101283.22;5072769;28;20024;-73
2022/04/21 01:48:35;;;;;;;10.90;6.93;;;;;;;8.46;64.90;101283.25;5071942;28;20078;-73
2022/04/21 01:51:00;;;;;;;7.45;6.13;;;;;;;8.41;64.26;101285.03;5089672;28;20060;-73
2022/04/21 01:53:25;;;;;;;11.40;6.95;;;;;;;8.42;65.35;101286.75;5078917;28;20016;-72
2022/04/21 01:55:51;;;;;;;8.45;5.95;;;;;;;8.34;64.87;101284.19;5088946;28;20032;-72
2022/04/21 01:58:17;;;;;;;10.07;6.90;;;;;;;8.30;64.41;101281.63;5078644;28;20021;-73
2022/04/21 02:00:42;;;;;;;11.43;6.43;;;;;;;8.25;65.17;101286.84;5081064;28;20074;-72
2022/04/21 02:03:07;;;;;;;13.32;6.72;;;;;;;8.21;65.42;101286.00;5083651;28;20863;-72
2022/04/21 02:05:33;;;;;;;9.05;6.60;;;;;;;8.24;65.61;101279.06;5073529;28;20032;-72
2022/04/21 02:08:00;;;;;;;11.73;6.53;;;;;;;8.19;65.88;101282.56;5079642;28;20418;-72
2022/04/21 02:10:25;;;;;;;11.57;6.57;;;;;;;8.21;66.13;101283.41;5087968;28;20055;-72
2022/04/21 02:12:51;;;;;;;9.00;6.15;;;;;;;8.14;65.82;101286.94;5092586;28;20526;-72
2022/04/21 02:15:20;;;;;;;12.55;6.72;;;;;;;8.01;66.07;101272.31;5083115;28;20107;-72
2022/04/21 02:17:46;;;;;;;10.98;6.75;;;;;;;8.01;66.44;101280.09;5078118;28;20428;-72
2022/04/21 02:20:15;;;;;;;11.20;6.80;;;;;;;7.98;65.75;101286.16;5091893;28;20055;-72
2022/04/21 02:22:40;;;;;;;10.70;7.07;;;;;;;7.97;66.06;101283.56;5080560;28;20028;-73
2022/04/21 02:25:08;;;;;;;8.07;6.28;;;;;;;7.91;66.12;101287.06;5084845;28;20081;-73
2022/04/21 02:27:34;;;;;;;10.88;7.15;;;;;;;7.88;66.77;101286.19;5089096;28;20024;-72
2022/04/21 02:29:59;;;;;;;9.63;6.93;;;;;;;7.85;67.01;101291.44;5091420;28;20028;-72
2022/04/21 02:32:25;;;;;;;10.20;7.00;;;;;;;7.86;67.75;101280.16;5091486;28;20490;-72
2022/04/21 02:34:53;;;;;;;9.48;6.50;;;;;;;7.86;68.08;101285.34;5081080;28;20021;-72
2022/04/21 02:37:18;;;;;;;14.90;7.05;;;;;;;7.83;68.17;101286.22;5079919;28;20565;-73
2022/04/21 02:39:44;;;;;;;9.40;7.10;;;;;;;7.83;67.67;101285.38;5082535;28;20054;-73
2022/04/21 02:42:09;;;;;;;9.43;7.53;;;;;;;7.77;68.08;101277.59;5071849;28;20040;-73
2022/04/21 02:44:36;;;;;;;9.65;7.00;;;;;;;7.82;68.34;101284.50;5089205;28;20024;-73
2022/04/21 02:47:03;;;;;;;8.35;7.05;;;;;;;7.76;68.29;101281.09;5079424;28;20054;-73
2022/04/21 02:49:29;;;;;;;11.38;7.45;;;;;;;7.69;67.95;101278.50;5091899;28;20084;-73
2022/04/21 02:51:55;;;;;;;10.20;7.10;;;;;;;7.69;68.45;101282.84;5090818;28;20127;-73
2022/04/21 02:57:22;;;;;;;13.07;7.90;;;;;;;7.54;68.34;101286.34;5084168;28;20032;-72
2022/04/21 02:59:50;;;;;;;9.57;6.93;;;;;;;7.54;68.61;101280.31;5079202;28;20039;-72
2022/04/21 03:02:16;;;;;;;12.55;7.90;;;;;;;7.48;69.38;101278.59;5090746;28;20541;-72
2022/04/21 03:04:41;;;;;;;10.18;7.22;;;;;;;7.51;68.41;101282.03;5091770;28;20028;-72
2022/04/21 03:07:07;;;;;;;11.90;7.10;;;;;;;7.51;68.73;101276.00;5086303;28;20029;-72
2022/04/21 03:09:32;;;;;;;11.13;7.07;;;;;;;7.50;68.46;101277.72;5075121;28;20032;-72
2022/04/21 03:12:04;;;;;;;10.50;7.53;;;;;;;7.58;68.28;101272.50;5089081;28;20048;-72
2022/04/21 03:14:29;;;;;;;12.15;7.68;;;;;;;7.60;69.16;101278.56;5072212;28;20056;-73
2022/04/21 03:16:55;;;;;;;9.88;6.85;;;;;;;7.50;68.83;101262.16;5076778;28;20438;-72
2022/04/21 03:19:21;;;;;;;8.73;6.63;;;;;;;7.49;68.74;101267.38;5091790;28;20441;-72
2022/04/21 03:24:30;;;;;;;11.80;7.35;;;;;;;7.51;67.84;101273.38;5088314;28;20494;-72
2022/04/21 03:26:56;;;;;;;11.90;6.65;;;;;;;7.43;68.53;101281.22;5073046;28;20032;-72
2022/04/21 03:29:21;;;;;;;11.75;7.78;;;;;;;7.39;68.97;101282.09;5080778;28;20028;-73
2022/04/21 03:31:48;;;;;;;11.32;7.30;;;;;;;7.37;68.85;101285.56;5081790;28;20029;-72
2022/04/21 03:34:15;;;;;;;9.70;6.60;;;;;;;7.32;68.63;101277.78;5090662;28;20032;-72
2022/04/21 03:36:45;;;;;;;11.98;7.25;;;;;;;7.32;69.45;101271.72;5078386;28;20141;-73
2022/04/21 03:39:10;;;;;;;10.57;7.00;;;;;;;7.31;68.97;101275.19;5075058;28;20464;-72
2022/04/21 03:41:36;;;;;;;9.02;6.72;;;;;;;7.23;69.18;101272.63;5074273;28;20081;-73
2022/04/21 03:44:01;;;;;;;15.60;7.70;;;;;;;7.21;69.19;101279.56;5076266;28;20055;-72
2022/04/21 03:46:27;;;;;;;11.98;7.70;;;;;;;7.15;69.25;101282.16;5076259;28;20499;-72
2022/04/21 03:48:52;;;;;;;11.50;7.35;;;;;;;7.12;70.28;101275.25;5075980;28;20028;-73
2022/04/21 03:51:17;;;;;;;11.35;7.35;;;;;;;7.09;70.21;101275.25;5092912;28;20056;-72
2022/04/21 03:53:42;;;;;;;10.43;7.10;;;;;;;7.03;69.68;101277.88;5084696;28;20024;-73
2022/04/21 03:56:08;;;;;;;11.95;7.32;;;;;;;7.02;69.62;101283.91;5074063;28;20468;-72
2022/04/21 03:58:33;;;;;;;11.82;7.07;;;;;;;7.02;70.33;101284.75;5074662;28;20117;-72
2022/04/21 04:00:58;;;;;;;10.45;7.72;;;;;;;7.02;69.81;101291.69;5089322;28;20043;-73
2022/04/21 04:03:24;;;;;;;15.98;7.18;;;;;;;6.99;69.36;101294.28;5094380;28;20070;-72
2022/04/21 04:05:49;;;;;;;13.27;6.78;;;;;;;6.95;69.81;101284.78;5085443;28;20468;-72
2022/04/21 04:11:05;;;;;;;12.70;7.50;;;;;;;6.85;70.23;101285.66;5061751;28;20395;-72
2022/04/21 04:13:31;;;;;;;10.75;7.25;;;;;;;6.85;71.10;101290.84;5087935;28;20036;-72
2022/04/21 04:15:57;;;;;;;10.13;7.10;;;;;;;6.76;70.97;101283.94;5090374;28;20043;-72
2022/04/21 04:18:23;;;;;;;14.93;7.25;;;;;;;6.64;70.72;101270.97;5078652;28;20039;-72
2022/04/21 04:20:48;;;;;;;11.50;7.78;;;;;;;6.66;71.06;101288.25;5074399;28;20104;-72
2022/04/21 04:23:22;;;;;;;9.23;6.95;;;;;;;6.67;71.20;101283.94;5074315;28;20059;-72
2022/04/21 04:25:48;;;;;;;10.10;7.50;;;;;;;6.66;71.81;101283.06;5073885;28;20033;-72
2022/04/21 04:28:14;;;;;;;12.65;7.53;;;;;;;6.62;71.33;101280.50;5089526;28;20173;-72
2022/04/21 04:30:40;;;;;;;11.98;8.10;;;;;;;6.55;71.06;101282.22;5090021;28;20119;-72
2022/04/21 04:33:06;;;;;;;12.07;7.53;;;;;;;6.52;71.47;101288.25;5074215;28;20099;-72
2022/04/21 04:35:31;;;;;;;15.00;7.50;;;;;;;6.55;72.15;101287.41;5074133;28;20047;-72
2022/04/21 04:37:58;;;;;;;12.65;7.90;;;;;;;6.54;71.84;101280.50;5073011;28;20384;-72
2022/04/21 04:40:23;;;;;;;12.25;7.63;;;;;;;6.53;71.62;101289.13;5074087;28;20024;-72
2022/04/21 04:42:48;;;;;;;11.40;7.70;;;;;;;6.53;71.02;101305.53;5088897;28;20111;-72
2022/04/21 04:47:58;;;;;;;13.48;7.57;;;;;;;6.51;71.78;101296.91;5086491;28;20034;-72
2022/04/21 04:50:23;;;;;;;14.90;7.43;;;;;;;6.54;71.73;101307.28;5092827;28;20418;-72
2022/04/21 04:52:48;;;;;;;12.00;7.28;;;;;;;6.55;71.96;101297.78;5093315;28;20031;-72
2022/04/21 04:55:14;;;;;;;12.77;7.68;;;;;;;6.53;71.77;101302.94;5085166;28;20074;-72
2022/04/21 04:57:40;;;;;;;16.27;7.57;;;;;;;6.57;71.60;101301.19;5077825;28;20392;-72
2022/04/21 05:00:08;;;;;;;15.35;7.85;;;;;;;6.58;72.51;101302.94;5092597;28;20384;-72
2022/04/21 05:02:34;;;;;;;14.27;7.63;;;;;;;6.63;72.13;101296.03;5090430;28;20042;-72
2022/04/21 05:04:59;;;;;;;14.43;8.57;;;;;;;6.68;72.17;101294.31;5092154;28;20024;-72
2022/04/21 05:07:25;;;;;;;13.60;7.60;;;;;;;6.73;72.55;101297.75;5077147;28;20066;-72
2022/04/21 05:09:50;;;;;;;13.50;7.70;;;;;;;6.82;71.47;101296.03;5092597;28;20464;-72
2022/04/21 05:12:15;;;;;;;13.02;8.02;;;;;;;6.85;70.84;101296.03;5093431;28;20024;-72
2022/04/21 05:14:40;;;;;;;14.55;8.02;;;;;;;6.88;71.84;101286.53;5086986;28;20024;-72
2022/04/21 05:17:06;;;;;;;14.20;8.02;;;;;;;6.89;70.99;101289.97;5075296;28;20449;-73
2022/04/21 05:19:32;;;;;;;14.63;7.45;;;;;;;6.95;71.21;101293.41;5090681;28;20055;-73
2022/04/21 05:22:04;;;;;;;12.48;7.35;;;;;;;7.01;70.18;101292.56;5091034;28;20032;-73
2022/04/21 05:24:31;;;;;;;11.57;7.80;;;;;;;7.11;70.75;101289.06;5093730;28;20103;-72
2022/04/21 05:26:57;;;;;;;17.38;7.75;;;;;;;7.16;70.76;101292.53;5084187;28;20020;-73
2022/04/21 05:32:26;;;;;;;13.93;8.00;;;;;;;7.30;69.50;101296.81;5030641;28;20084;-73
2022/04/21 05:34:52;;;;;;;17.23;6.97;;;;;;;7.39;68.75;101289.00;5066368;28;20514;-78
2022/04/21 05:37:17;;;;;;;14.88;7.70;;;;;;;7.42;69.27;101288.97;5089060;28;20068;-73
2022/04/21 05:39:43;;;;;;;12.35;8.32;;;;;;;7.48;69.15;101284.63;5090856;28;20036;-73
2022/04/21 05:42:17;;;;;;;12.25;7.65;;;;;;;7.54;68.40;101282.91;5081272;28;20538;-71
2022/04/21 05:44:42;;;;;;;12.13;7.78;;;;;;;7.61;69.14;101284.59;5073370;28;20515;-73
2022/04/21 05:47:08;;;;;;;13.13;7.78;;;;;;;7.66;68.23;101275.94;5081701;28;20028;-73
2022/04/21 05:49:34;;;;;;;14.00;7.65;;;;;;;7.72;69.23;101286.28;5080638;28;20032;-73
2022/04/21 05:52:01;;;;;;;11.85;7.82;;;;;;;7.74;67.48;101276.75;5085083;28;20085;-75
2022/04/21 05:54:27;;;;;;;13.25;7.82;;;;;;;7.85;67.98;101281.03;5077959;28;20028;-74
2022/04/21 05:56:52;;;;;;;13.23;7.43;;;;;;;7.93;67.48;101287.03;5075918;28;20039;-73
2022/04/21 05:59:17;;;;;;;15.57;7.90;;;;;;;8.02;67.01;101276.63;5089219;28;20020;-73
2022/04/21 06:01:43;;;;;;;14.05;7.53;;;;;;;8.10;66.44;101281.75;5083411;28;20037;-73
2022/04/21 06:04:08;;;;;;;12.48;7.40;;;;;;;8.15;65.91;101278.25;5091354;28;20031;-73
2022/04/21 06:06:33;;;;;;;12.05;6.90;;;;;;;8.20;66.01;101276.47;5086784;28;20028;-73
2022/04/21 06:09:00;;;;;;;24.30;8.18;;;;;;;8.27;66.89;101284.22;5088262;28;20388;-73
2022/04/21 06:11:25;;;;;;;11.02;7.53;;;;;;;8.32;65.08;101287.66;5085746;28;20035;-72
2022/04/21 06:13:51;;;;;;;12.55;8.45;;;;;;;8.33;66.69;101287.66;5072590;28;20028;-73
2022/04/21 06:16:16;;;;;;;12.32;7.80;;;;;;;8.40;65.94;101283.31;5087732;28;20040;-73
2022/04/21 06:18:41;;;;;;;10.93;7.88;;;;;;;8.43;65.77;101284.13;5079073;28;20442;-74
2022/04/21 06:21:06;;;;;;;11.68;7.72;;;;;;;8.47;64.86;101278.91;5074815;28;20034;-73
2022/04/21 06:23:32;;;;;;;10.40;7.63;;;;;;;8.53;63.89;101282.31;5081468;28;20036;-73
2022/04/21 06:26:00;;;;;;;11.45;8.60;;;;;;;8.60;65.02;101272.75;5087589;28;20474;-73
2022/04/21 06:28:26;;;;;;;10.80;7.78;;;;;;;8.65;62.96;101263.19;5081845;28;20024;-72
2022/04/21 06:30:52;;;;;;;11.93;7.28;;;;;;;8.69;62.99;101272.66;5076521;28;20430;-73
2022/04/21 06:33:18;;;;;;;12.55;8.23;;;;;;;8.79;63.79;101270.84;5072870;28;20038;-73
2022/04/21 06:35:44;;;;;;;12.02;7.85;;;;;;;8.80;63.28;101268.25;5071998;28;20059;-72
2022/04/21 06:38:10;;;;;;;10.88;7.63;;;;;;;8.94;62.81;101264.66;5072671;28;20036;-73
2022/04/21 06:40:35;;;;;;;13.57;7.82;;;;;;;9.02;62.46;101266.28;5083677;28;20466;-73
2022/04/21 06:43:03;;;;;;;14.23;6.97;;;;;;;9.14;61.24;101258.34;5081013;28;20028;-73
2022/04/21 06:48:13;;;;;;;11.07;7.30;;;;;;;9.30;61.54;101258.19;5089071;28;20047;-75
2022/04/21 06:50:39;;;;;;;10.52;7.85;;;;;;;9.43;61.36;101262.38;5089133;28;20052;-74
2022/04/21 06:53:06;;;;;;;12.98;7.38;;;;;;;9.54;61.04;101262.22;5075095;28;20024;-72
2022/04/21 06:55:32;;;;;;;9.60;7.03;;;;;;;9.62;61.10;101255.22;5079221;28;20024;-74
2022/04/21 06:57:58;;;;;;;9.85;7.05;;;;;;;9.71;61.29;101259.41;5082755;28;20093;-73
2022/04/21 07:00:26;;;;;;;9.45;6.32;;;;;;;9.80;59.97;101265.34;5071076;28;20036;-74
2022/04/21 07:02:55;;;;;;;12.30;7.00;;;;;;;9.84;60.24;101253.16;5085689;28;20028;-74
2022/04/21 07:05:22;;;;;;;11.02;6.63;;;;;;;9.94;58.55;101261.69;5088438;28;20089;-73
2022/04/21 07:07:48;;;;;;;10.38;6.90;;;;;;;10.01;58.44;101274.63;5087997;28;20432;-72
2022/04/21 07:10:14;;;;;;;13.05;7.20;;;;;;;10.07;58.66;101266.75;5076825;28;20047;-72
2022/04/21 07:12:40;;;;;;;11.35;7.38;;;;;;;10.15;58.26;101260.53;5079569;28;20530;-73
2022/04/21 07:15:08;;;;;;;15.20;7.32;;;;;;;10.25;57.47;101254.31;5083615;28;20116;-73
2022/04/21 07:17:34;;;;;;;12.43;6.88;;;;;;;10.32;57.13;101253.34;5074935;28;20154;-73
2022/04/21 07:20:00;;;;;;;10.57;7.28;;;;;;;10.40;57.69;101259.31;5089048;28;20031;-73
2022/04/21 07:22:26;;;;;;;12.95;7.28;;;;;;;10.47;57.65;101257.47;5085997;28;20124;-73
2022/04/21 07:24:55;;;;;;;11.23;7.47;;;;;;;10.55;56.55;101251.22;5083862;28;20107;-73
2022/04/21 07:27:21;;;;;;;12.18;6.85;;;;;;;10.63;56.97;101252.88;5074278;28;20036;-73
2022/04/21 07:29:47;;;;;;;11.05;7.03;;;;;;;10.65;56.07;101254.53;5075976;28;20364;-73
2022/04/21 07:32:12;;;;;;;8.02;6.20;;;;;;;10.80;56.22;101266.47;5077078;28;20094;-73
2022/04/21 07:34:38;;;;;;;7.82;6.40;;;;;;;10.87;55.78;101265.47;5074095;28;20059;-73
2022/04/21 07:37:04;;;;;;;10.00;6.10;;;;;;;10.93;55.30;101270.56;5077489;28;20020;-73
2022/04/21 07:39:30;;;;;;;12.23;6.47;;;;;;;11.03;55.36;101268.66;5078045;28;20379;-73
2022/04/21 07:41:57;;;;;;;11.38;6.22;;;;;;;11.10;55.00;101267.66;5075375;28;20028;-73
2022/04/21 07:44:22;;;;;;;11.35;5.97;;;;;;;11.19;53.78;101267.47;5090685;28;20085;-73
2022/04/21 07:46:48;;;;;;;8.45;5.85;;;;;;;11.25;53.33;101269.97;5089403;28;20619;-73
2022/04/21 07:53:12;;;;;;;9.85;6.00;;;;;;;11.47;53.58;101270.38;5083873;28;20163;-73
2022/04/21 07:54:43;;;;;;;9.45;5.63;;;;;;;11.53;53.04;101269.41;5073432;28;20047;-73
2022/04/21 07:57:09;;;;;;;10.80;5.88;;;;;;;11.56;51.93;101251.06;5081792;28;20016;-73
2022/04/21 07:59:34;;;;;;;8.98;5.85;;;;;;;11.65;53.71;101247.41;5094387;28;20032;-73
2022/04/21 08:02:00;;;;;;;12.38;6.13;;;;;;;11.80;53.99;101252.28;5094213;28;20024;-73
2022/04/21 08:04:25;;;;;;;10.07;6.20;;;;;;;11.92;52.84;101257.28;5094470;28;20512;-73
2022/04/21 08:06:51;;;;;;;11.68;6.78;;;;;;;12.03;52.19;101258.78;5079257;28;20443;-73
2022/04/21 08:09:16;;;;;;;11.80;6.65;;;;;;;12.15;52.44;101253.28;5089328;28;20044;-73
2022/04/21 08:11:41;;;;;;;10.30;7.00;;;;;;;12.24;52.57;101250.47;5089063;28;20027;-73
2022/04/21 08:14:07;;;;;;;12.93;6.82;;;;;;;12.28;51.52;101246.88;5084508;28;20028;-73
2022/04/21 08:16:33;;;;;;;14.18;6.78;;;;;;;12.37;50.51;101245.81;5078666;28;20028;-73
2022/04/21 08:18:59;;;;;;;11.20;6.15;;;;;;;12.44;51.56;101256.97;5089825;28;20437;-74
2022/04/21 08:21:25;;;;;;;11.50;6.68;;;;;;;12.50;50.35;101257.66;5086968;28;20035;-73
2022/04/21 08:23:51;;;;;;;12.35;6.78;;;;;;;12.57;53.00;101263.59;5088682;28;20024;-73
2022/04/21 08:34:30;;;;;;;15.15;6.72;;;;;;;12.87;50.80;101254.97;5091581;28;20043;-73
2022/04/21 08:36:55;;;;;;;12.43;6.40;;;;;;;12.91;51.53;101258.34;5081140;28;20581;-73
2022/04/21 08:39:21;;;;;;;16.65;6.60;;;;;;;13.02;51.49;101260.72;5075130;28;20041;-73
2022/04/21 08:41:48;;;;;;;9.68;6.65;;;;;;;13.07;52.34;101258.81;5078186;28;20464;-73
2022/04/21 08:44:20;;;;;;;13.25;6.97;;;;;;;13.18;52.76;101261.13;5081080;28;20028;-73
2022/04/21 08:46:47;;;;;;;10.23;6.60;;;;;;;13.24;51.97;101260.94;5077838;28;20050;-74
2022/04/21 08:49:14;;;;;;;9.85;6.53;;;;;;;13.32;53.04;101253.78;5085007;28;20032;-73
2022/04/21 08:51:40;;;;;;;9.65;6.88;;;;;;;13.44;52.04;101257.81;5079359;28;20053;-73
2022/04/21 08:54:06;;;;;;;9.90;6.85;;;;;;;13.47;52.27;101249.84;5090853;28;20027;-73
2022/04/21 08:56:31;;;;;;;9.50;6.80;;;;;;;13.55;52.74;101253.97;5088601;28;20020;-73
2022/04/21 08:58:57;;;;;;;9.05;6.57;;;;;;;13.62;50.76;101254.66;5088094;28;20024;-73
2022/04/21 09:01:22;;;;;;;10.27;5.60;;;;;;;13.74;52.54;101246.44;5087924;28;20107;-73
2022/04/21 09:03:48;;;;;;;12.00;5.93;;;;;;;13.79;51.17;101244.53;5073739;28;20357;-73
2022/04/21 09:06:13;;;;;;;9.45;6.10;;;;;;;13.90;50.98;101246.00;5077617;28;20024;-73
2022/04/21 09:08:38;;;;;;;9.25;5.72;;;;;;;14.01;51.03;101243.88;5083421;28;20063;-74
2022/04/21 09:11:09;;;;;;;10.25;5.85;;;;;;;14.09;50.59;101241.84;5086834;28;20032;-73
2022/04/21 09:13:37;;;;;;;7.88;5.32;;;;;;;14.20;50.77;101237.16;5077344;28;20051;-73
2022/04/21 09:16:04;;;;;;;9.73;5.18;;;;;;;14.34;51.28;101231.44;5078529;28;20024;-73
2022/04/21 09:18:44;;;;;;;9.43;4.25;;;;;;;14.48;50.35;101228.34;5088539;28;20048;-73
2022/04/21 09:21:14;;;;;;;5.60;3.35;;;;;;;14.55;45.06;101235.16;5090784;28;20033;-73
2022/04/21 09:23:40;;;;;;;3.75;3.10;;;;;;;14.52;43.88;101216.91;5090136;28;20016;-73
2022/04/21 09:26:07;;;;;;;5.28;4.10;;;;;;;14.51;45.60;101230.91;5073182;28;20028;-73
2022/04/21 09:28:33;;;;;;;6.00;3.38;;;;;;;14.60;45.85;101216.63;5075092;28;20032;-73
2022/04/21 09:31:00;;;;;;;5.95;3.40;;;;;;;14.71;45.13;101212.75;5074333;28;20029;-73
2022/04/21 09:33:31;;;;;;;4.72;3.33;;;;;;;14.88;44.90;101216.53;5089902;28;20027;-73
2022/04/21 09:35:57;;;;;;;4.85;3.20;;;;;;;15.00;45.25;101210.84;5077120;28;20032;-73
2022/04/21 09:38:23;;;;;;;6.65;3.20;;;;;;;15.10;43.86;101225.34;5075102;28;20108;-73
2022/04/21 09:40:49;;;;;;;5.22;3.00;;;;;;;15.23;43.24;101216.09;5078739;28;20115;-73
2022/04/21 09:43:26;;;;;;;4.20;2.90;;;;;;;15.34;43.11;101225.38;5083254;28;20028;-73
2022/04/21 09:46:09;;;;;;;5.53;3.63;;;;;;;15.42;43.09;101221.53;5086262;28;20479;-73
2022/04/21 09:48:35;;;;;;;4.90;3.60;;;;;;;15.43;44.97;101206.63;5078181;28;20024;-73
2022/04/21 09:51:14;;;;;;;5.32;4.10;;;;;;;15.48;43.06;101216.97;5091266;28;20380;-73
2022/04/21 09:54:03;;;;;;;5.80;3.70;;;;;;;15.49;42.73;101211.66;5077106;28;20598;-73
2022/04/21 09:56:36;;;;;;;5.65;3.92;;;;;;;15.57;43.27;101204.34;5082792;28;20055;-73
2022/04/21 09:59:04;;;;;;;5.00;3.90;;;;;;;15.68;41.14;101211.84;5075874;28;20435;-74
2022/04/21 10:01:29;;;;;;;5.47;3.35;;;;;;;15.71;40.44;101210.88;5073404;28;20416;-73
2022/04/21 10:03:57;;;;;;;6.40;3.63;;;;;;;15.74;41.69;101205.50;5073533;28;20020;-75
2022/04/21 10:06:23;;;;;;;5.93;3.95;;;;;;;15.86;41.07;101210.28;5076674;28;20036;-76
2022/04/21 10:08:49;;;;;;;7.53;3.05;;;;;;;15.87;40.99;101201.47;5075568;28;20027;-76
2022/04/21 10:11:18;;;;;;;6.45;3.20;;;;;;;15.88;37.64;101208.44;5075435;28;20520;-76
2022/04/21 10:13:44;;;;;;;4.78;3.20;;;;;;;15.87;38.95;101201.47;5089106;28;20039;-76
2022/04/21 10:16:11;;;;;;;5.55;3.40;;;;;;;15.91;37.75;101197.78;5079379;28;20024;-76
2022/04/21 10:18:37;;;;;;;8.38;3.20;;;;;;;15.94;39.96;101184.53;5072730;28;20417;-76
2022/04/21 10:21:03;;;;;;;6.22;3.20;;;;;;;16.04;37.61;101183.22;5074489;28;20028;-76
2022/04/21 10:23:29;;;;;;;9.52;3.30;;;;;;;16.25;38.93;101176.25;5078420;28;20426;-76
2022/04/21 10:26:00;;;;;;;6.25;3.28;;;;;;;16.39;36.67;101183.56;5071786;28;20110;-77
2022/04/21 10:28:39;;;;;;;4.72;3.00;;;;;;;16.49;37.13;101178.75;5077065;28;20094;-76
2022/04/21 10:31:33;;;;;;;12.15;3.97;;;;;;;16.56;37.57;101181.03;5081329;28;20020;-75
2022/04/21 10:34:04;;;;;;;8.57;3.75;;;;;;;16.57;36.99;101171.38;5072387;28;20499;-76
2022/04/21 10:36:37;;;;;;;12.65;3.72;;;;;;;16.69;37.40;101176.09;5080390;28;20470;-76
2022/04/21 10:39:10;;;;;;;7.53;3.30;;;;;;;16.78;36.24;101174.91;5078046;28;20067;-76
2022/04/21 10:41:36;;;;;;;;;;;;;;;16.91;35.10;101167.31;5072827;28;20299;-76
2022/04/21 10:44:02;;;;;;;5.15;3.03;;;;;;;16.75;35.41;101159.22;5071087;28;20410;-76
2022/04/21 10:46:29;;;;;;;4.40;3.05;;;;;;;16.77;35.56;101170.53;5071963;28;20039;-76
2022/04/21 10:48:55;;;;;;;5.68;3.28;;;;;;;16.85;34.12;101156.13;5071415;28;20016;-76
2022/04/21 10:57:16;;;;;;;;;;;;;;;17.51;35.26;101153.06;5072109;28;20043;-76
2022/04/21 11:00:31;;;;;;;4.18;2.47;;;;;;;17.65;34.84;101141.88;5070976;28;19919;-76
2022/04/21 11:03:08;;;;;;;2.55;2.10;;;;;;;17.82;33.01;101153.41;5057666;28;20044;-76
2022/04/21 11:05:40;;;;;;;3.10;2.10;;;;;;;17.78;30.97;101144.78;5073504;28;20040;-75
2022/04/21 11:08:13;;;;;;;3.63;2.33;;;;;;;17.89;32.42;101149.56;5092082;28;20048;-75
2022/04/21 11:10:38;;;;;;;3.75;2.08;;;;;;;18.07;34.80;101153.06;5075434;28;20391;-76
2022/04/21 11:13:19;;;;;;;3.33;2.13;;;;;;;18.16;30.27;101136.78;5081955;28;20480;-75
2022/04/21 11:15:45;;;;;;;5.95;2.53;;;;;;;18.21;30.17;101145.31;5083612;28;20074;-76
2022/04/21 11:18:15;;;;;;;4.57;2.40;;;;;;;18.27;30.55;101129.16;5080365;28;20905;-76
2022/04/21 11:20:42;;;;;;;5.57;2.67;;;;;;;18.40;31.75;101126.75;5085835;28;20028;-76
2022/04/21 11:23:09;;;;;;;4.18;2.63;;;;;;;18.57;32.64;101126.72;5077197;28;20429;-74
2022/04/21 11:25:35;;;;;;;3.40;1.90;;;;;;;18.80;31.97;101117.66;5072815;28;20041;-76
2022/04/21 11:28:01;;;;;;;3.50;2.40;;;;;;;18.95;31.20;101115.94;5088157;28;20024;-75
2022/04/21 11:30:29;;;;;;;5.00;2.35;;;;;;;19.06;29.31;101115.34;5091315;28;20055;-74
2022/04/21 11:32:54;;;;;;;7.70;2.60;;;;;;;19.08;28.66;101113.50;5084888;28;20031;-79
2022/04/21 11:35:22;;;;;;;3.97;2.40;;;;;;;19.09;30.25;101112.56;5083811;28;20029;-79
2022/04/21 11:37:54;;;;;;;5.13;2.47;;;;;;;19.12;29.90;101099.16;5071080;28;20112;-76
2022/04/21 11:40:37;;;;;;;4.78;2.40;;;;;;;19.14;29.38;101097.31;5070643;28;20093;-76
2022/04/21 11:43:11;;;;;;;5.25;2.28;;;;;;;19.19;28.38;101103.19;5071163;28;20483;-77
2022/04/21 11:45:38;;;;;;;3.08;2.22;;;;;;;19.54;28.49;101093.28;5081929;28;20052;-76
2022/04/21 11:48:12;;;;;;;3.53;2.30;;;;;;;20.10;28.37;101088.31;5074228;28;20023;-76
2022/04/21 11:50:42;;;;;;;3.85;2.35;;;;;;;20.95;27.83;101084.03;5083050;28;20131;-77
2022/04/21 11:53:18;;;;;;;4.05;2.30;;;;;;;21.78;24.87;101091.94;5078563;28;20124;-77
2022/04/21 11:55:44;;;;;;;2.75;2.20;;;;;;;22.97;25.12;101093.56;5090949;28;20047;-77
2022/04/21 11:58:10;;;;;;;3.20;2.00;;;;;;;24.06;23.55;101083.69;5078665;28;20024;-77
2022/04/21 12:08:49;;;;;;;4.35;2.72;;;;;;;26.04;19.42;101079.38;5075094;28;20561;-77
2022/04/21 12:11:17;;;;;;;2.88;2.65;;;;;;;26.36;20.59;101079.28;5074551;28;20041;-77
2022/04/21 12:13:43;;;;;;;7.18;2.70;;;;;;;26.42;19.56;101072.53;5080253;28;20117;-77
2022/04/21 12:16:49;;;;;;;4.30;3.25;;;;;;;26.91;21.49;101078.97;5081994;28;20483;-78